Time;durP1;ratioP1;P1;durP2;ratioP2;P2;SDS_P1;SDS_P2;PMS_P1;PMS_P2;Temp;Humidity;BMP_temperature;BMP_pressure;BME280_temperature;BME280_humidity;BME280_pressure;Samples;Min_cycle;Max_cycle;Signal;HPM_P1;HPM_P2
2022/10/08 00:00:56;;;;;;;21.42;11.18;;;;;;;;;;5096210;28;20028;-67
2022/10/08 00:03:23;;;;;;;30.02;11.68;;;;;;;;;;5095750;28;20024;-67
2022/10/08 00:05:56;;;;;;;19.17;10.27;;;;;;;;;;5096132;28;20035;-66
2022/10/08 00:08:22;;;;;;;23.77;10.90;;;;;;;;;;5096055;28;20120;-67
2022/10/08 00:10:59;;;;;;;23.33;10.57;;;;;;;;;;5094574;28;20081;-68
2022/10/08 00:13:25;;;;;;;22.80;9.85;;;;;;;;;;5095804;28;20374;-68
2022/10/08 00:15:52;;;;;;;23.90;10.77;;;;;;;;;;5095625;28;20016;-68
2022/10/08 00:18:18;;;;;;;26.98;10.07;;;;;;;;;;5095688;28;20016;-67
2022/10/08 00:20:44;;;;;;;23.65;10.95;;;;;;;;;;5095759;28;20045;-68
2022/10/08 00:23:10;;;;;;;25.75;11.57;;;;;;;;;;5095045;28;20477;-67
2022/10/08 00:25:40;;;;;;;28.73;10.93;;;;;;;;;;5095833;28;20028;-67
2022/10/08 00:28:06;;;;;;;19.58;10.02;;;;;;;;;;5094401;28;20497;-68
2022/10/08 00:30:34;;;;;;;25.92;10.45;;;;;;;;;;5095550;28;20421;-66
2022/10/08 00:33:01;;;;;;;22.42;11.23;;;;;;;;;;5095524;28;20103;-68
2022/10/08 00:35:27;;;;;;;23.80;11.35;;;;;;;;;;5095480;28;20028;-68
2022/10/08 00:37:53;;;;;;;25.40;10.75;;;;;;;;;;5079090;28;20715;-68
2022/10/08 00:40:19;;;;;;;22.88;10.93;;;;;;;;;;5084941;28;20024;-68
2022/10/08 00:42:45;;;;;;;23.73;10.25;;;;;;;;;;5095018;28;20035;-68
2022/10/08 00:45:12;;;;;;;23.50;10.20;;;;;;;;;;5095017;28;20024;-68
2022/10/08 00:47:47;;;;;;;23.42;10.98;;;;;;;;;;5095229;28;20487;-67
2022/10/08 00:50:16;;;;;;;22.77;10.43;;;;;;;;;;5095240;28;20028;-67
2022/10/08 00:52:42;;;;;;;;;;;;;;;;;;5095666;28;20020;-67
2022/10/08 00:55:09;;;;;;;21.90;9.60;;;;;;;;;;5094886;28;19904;-67
2022/10/08 00:57:35;;;;;;;24.33;11.43;;;;;;;;;;5093764;28;20089;-67
2022/10/08 01:00:04;;;;;;;26.35;10.27;;;;;;;;;;5094908;28;20032;-67
2022/10/08 01:02:30;;;;;;;21.23;10.40;;;;;;;;;;5094916;28;20601;-68
2022/10/08 01:04:56;;;;;;;23.83;10.25;;;;;;;;;;5094645;28;20399;-67
2022/10/08 01:07:22;;;;;;;22.92;10.10;;;;;;;;;;5094579;28;20103;-68
2022/10/08 01:09:55;;;;;;;29.08;11.30;;;;;;;;;;5094779;28;20497;-67
2022/10/08 01:12:27;;;;;;;21.58;10.20;;;;;;;;;;5093503;28;20092;-68
2022/10/08 01:15:12;;;;;;;21.80;10.07;;;;;;;;;;5093276;28;20069;-68
2022/10/08 01:17:47;;;;;;;19.63;10.45;;;;;;;;;;5094665;28;20024;-68
2022/10/08 01:20:32;;;;;;;21.67;9.70;;;;;;;;;;5094658;28;20522;-68
2022/10/08 01:23:13;;;;;;;22.55;9.35;;;;;;;;;;5093105;28;20040;-67
2022/10/08 01:25:51;;;;;;;24.02;10.40;;;;;;;;;;5093153;28;20031;-67
2022/10/08 01:28:31;;;;;;;27.50;10.25;;;;;;;;;;5094632;28;20032;-67
2022/10/08 01:30:59;;;;;;;20.20;10.30;;;;;;;;;;5094688;28;20032;-68
2022/10/08 01:33:25;;;;;;;;;;;;;;;;;;5094516;28;20497;-67
2022/10/08 01:35:55;;;;;;;21.65;10.25;;;;;;;;;;5094159;28;20006;-68
2022/10/08 01:38:22;;;;;;;23.00;9.88;;;;;;;;;;5094287;28;20108;-68
2022/10/08 01:40:50;;;;;;;22.67;10.93;;;;;;;;;;5093116;28;20020;-68
2022/10/08 01:43:18;;;;;;;22.42;9.50;;;;;;;;;;5094018;28;20036;-67
2022/10/08 01:45:49;;;;;;;21.00;11.02;;;;;;;;;;5092986;28;20036;-67
2022/10/08 01:48:18;;;;;;;23.35;9.65;;;;;;;;;;5094219;28;20607;-68
2022/10/08 01:50:53;;;;;;;21.30;9.77;;;;;;;;;;5093976;28;20495;-68
2022/10/08 01:53:21;;;;;;;20.67;10.20;;;;;;;;;;5093759;28;20491;-68
2022/10/08 01:55:49;;;;;;;24.00;10.43;;;;;;;;;;5093928;28;20353;-66
2022/10/08 01:58:24;;;;;;;26.63;10.13;;;;;;;;;;5092789;28;20020;-68
2022/10/08 02:00:50;;;;;;;20.48;9.40;;;;;;;;;;5093992;28;20105;-67
2022/10/08 02:03:16;;;;;;;23.45;10.15;;;;;;;;;;5093465;28;20067;-67
2022/10/08 02:05:46;;;;;;;19.83;10.02;;;;;;;;;;5093257;28;20055;-68
2022/10/08 02:08:13;;;;;;;22.08;10.02;;;;;;;;;;5093517;28;20020;-67
2022/10/08 02:10:39;;;;;;;21.23;10.50;;;;;;;;;;5093537;28;20023;-68
2022/10/08 02:13:05;;;;;;;21.98;10.13;;;;;;;;;;5093208;28;20016;-67
2022/10/08 02:15:44;;;;;;;23.10;10.15;;;;;;;;;;5092886;28;20051;-68
2022/10/08 02:18:34;;;;;;;21.60;9.80;;;;;;;;;;5093433;28;20387;-67
2022/10/08 02:21:03;;;;;;;21.25;10.15;;;;;;;;;;5092368;28;20024;-68
2022/10/08 02:23:36;;;;;;;23.40;10.10;;;;;;;;;;5093171;28;20122;-68
2022/10/08 02:26:04;;;;;;;22.40;9.38;;;;;;;;;;5092239;28;20042;-68
2022/10/08 02:28:34;;;;;;;23.70;10.65;;;;;;;;;;5093103;28;20028;-68
2022/10/08 02:31:13;;;;;;;22.67;9.75;;;;;;;;;;5093360;28;20020;-67
2022/10/08 02:33:43;;;;;;;19.13;9.65;;;;;;;;;;5091766;28;20024;-67
2022/10/08 02:36:11;;;;;;;22.35;8.95;;;;;;;;;;5093241;28;20024;-67
2022/10/08 02:38:44;;;;;;;22.60;10.48;;;;;;;;;;5093161;28;20078;-67
2022/10/08 02:41:11;;;;;;;22.45;10.27;;;;;;;;;;5093100;28;20024;-67
2022/10/08 02:43:38;;;;;;;20.27;10.13;;;;;;;;;;5092834;28;20024;-68
2022/10/08 02:46:11;;;;;;;21.05;9.60;;;;;;;;;;5092994;28;20036;-68
2022/10/08 02:48:41;;;;;;;26.88;10.55;;;;;;;;;;5092714;28;20023;-67
2022/10/08 02:51:10;;;;;;;24.02;10.10;;;;;;;;;;5093198;28;20568;-67
2022/10/08 02:53:37;;;;;;;20.50;10.00;;;;;;;;;;5092776;28;20031;-68
2022/10/08 02:56:03;;;;;;;24.30;9.80;;;;;;;;;;5091793;28;20024;-67
2022/10/08 02:58:30;;;;;;;18.98;9.13;;;;;;;;;;5091257;28;20020;-68
2022/10/08 03:01:03;;;;;;;24.25;10.48;;;;;;;;;;5092512;28;20380;-67
2022/10/08 03:03:32;;;;;;;24.42;9.85;;;;;;;;;;5091280;28;20024;-67
2022/10/08 03:05:58;;;;;;;;;;;;;;;;;;5093034;28;20107;-68
2022/10/08 03:08:25;;;;;;;26.35;9.57;;;;;;;;;;5092816;28;19939;-68
2022/10/08 03:10:51;;;;;;;22.50;9.70;;;;;;;;;;5092516;28;20024;-68
2022/10/08 03:13:19;;;;;;;27.65;9.57;;;;;;;;;;5092346;28;20085;-67
2022/10/08 03:15:47;;;;;;;19.92;8.93;;;;;;;;;;5092589;28;20020;-68
2022/10/08 03:18:14;;;;;;;23.55;9.80;;;;;;;;;;5092714;28;20020;-68
2022/10/08 03:20:44;;;;;;;28.77;9.80;;;;;;;;;;5092416;28;20028;-67
2022/10/08 03:23:12;;;;;;;22.02;8.70;;;;;;;;;;5091722;28;20024;-68
2022/10/08 03:25:38;;;;;;;23.00;9.90;;;;;;;;;;5092030;28;20028;-68
2022/10/08 03:28:04;;;;;;;20.63;9.32;;;;;;;;;;5091924;28;20031;-68
2022/10/08 03:30:29;;;;;;;22.45;10.25;;;;;;;;;;5091058;28;20059;-68
2022/10/08 03:32:55;;;;;;;23.50;10.20;;;;;;;;;;5092419;28;20054;-68
2022/10/08 03:35:23;;;;;;;19.83;10.18;;;;;;;;;;5091940;28;20114;-68
2022/10/08 03:37:49;;;;;;;23.33;9.70;;;;;;;;;;5091020;28;20475;-68
2022/10/08 03:40:15;;;;;;;23.58;9.52;;;;;;;;;;5091976;28;20028;-68
2022/10/08 03:42:41;;;;;;;24.15;9.60;;;;;;;;;;5092090;28;20020;-67
2022/10/08 03:45:07;;;;;;;19.77;9.38;;;;;;;;;;5091953;28;20032;-68
2022/10/08 03:47:35;;;;;;;19.42;9.05;;;;;;;;;;5092012;28;20157;-68
2022/10/08 03:50:01;;;;;;;24.58;9.52;;;;;;;;;;5092127;28;20027;-67
2022/10/08 03:52:29;;;;;;;21.15;9.73;;;;;;;;;;5090281;28;20024;-66
2022/10/08 03:54:54;;;;;;;22.75;9.70;;;;;;;;;;5091782;28;20103;-67
2022/10/08 03:57:20;;;;;;;23.88;9.73;;;;;;;;;;5090917;28;20121;-66
2022/10/08 03:59:47;;;;;;;22.92;10.02;;;;;;;;;;5090886;28;20020;-67
2022/10/08 04:02:13;;;;;;;22.17;10.05;;;;;;;;;;5092025;28;20020;-67
2022/10/08 04:04:38;;;;;;;24.20;10.18;;;;;;;;;;5091875;28;20070;-66
2022/10/08 04:07:04;;;;;;;22.17;11.77;;;;;;;;;;5092230;28;20429;-66
2022/10/08 04:09:30;;;;;;;22.15;11.00;;;;;;;;;;5099863;28;20051;-66
2022/10/08 04:11:56;;;;;;;24.98;12.43;;;;;;;;;;5110124;28;20025;-66
2022/10/08 04:14:22;;;;;;;29.52;11.95;;;;;;;;;;5093049;28;20043;-66
2022/10/08 04:16:48;;;;;;;23.92;11.88;;;;;;;;;;5107862;28;20052;-67
2022/10/08 04:19:16;;;;;;;28.30;13.40;;;;;;;;;;5109465;28;20047;-66
2022/10/08 04:21:42;;;;;;;27.55;13.05;;;;;;;;;;5103118;28;20107;-66
2022/10/08 04:24:09;;;;;;;26.10;13.82;;;;;;;;;;5101723;28;20020;-66
2022/10/08 04:26:35;;;;;;;24.90;13.13;;;;;;;;;;5091490;28;20495;-66
2022/10/08 04:29:01;;;;;;;27.77;13.30;;;;;;;;;;5092242;28;20024;-67
2022/10/08 04:31:27;;;;;;;22.23;13.98;;;;;;;;;;5089325;28;20023;-66
2022/10/08 04:33:53;;;;;;;27.20;15.90;;;;;;;;;;5091065;28;20479;-66
2022/10/08 04:36:20;;;;;;;26.33;17.08;;;;;;;;;;5090342;28;20035;-65
2022/10/08 04:38:47;;;;;;;29.95;17.80;;;;;;;;;;5093756;28;20032;-66
2022/10/08 04:41:14;;;;;;;25.70;18.45;;;;;;;;;;5095388;28;20174;-66
2022/10/08 04:43:41;;;;;;;24.55;19.65;;;;;;;;;;5095180;28;20430;-66
2022/10/08 04:46:11;;;;;;;27.42;21.40;;;;;;;;;;5095282;28;20028;-66
2022/10/08 04:48:37;;;;;;;25.70;21.23;;;;;;;;;;5095186;28;20024;-66
2022/10/08 04:51:05;;;;;;;28.20;20.73;;;;;;;;;;5095162;28;20525;-66
2022/10/08 04:53:31;;;;;;;26.27;21.13;;;;;;;;;;5095192;28;20073;-66
2022/10/08 04:55:57;;;;;;;27.27;22.02;;;;;;;;;;5099216;28;20095;-66
2022/10/08 04:58:24;;;;;;;29.98;22.42;;;;;;;;;;5113980;28;20035;-66
2022/10/08 05:00:51;;;;;;;39.70;22.67;;;;;;;;;;5115571;28;20049;-66
2022/10/08 05:03:17;;;;;;;30.73;24.13;;;;;;;;;;5097628;28;20111;-66
2022/10/08 05:05:44;;;;;;;32.97;23.58;;;;;;;;;;5081498;28;20082;-66
2022/10/08 05:08:10;;;;;;;28.17;22.02;;;;;;;;;;5084925;28;20105;-68
2022/10/08 05:10:36;;;;;;;30.30;22.63;;;;;;;;;;5096243;28;20617;-67
2022/10/08 05:13:02;;;;;;;28.10;22.70;;;;;;;;;;5094542;28;20131;-63
2022/10/08 05:15:29;;;;;;;30.02;23.27;;;;;;;;;;5093479;28;20119;-67
2022/10/08 05:17:55;;;;;;;33.05;24.92;;;;;;;;;;5093675;28;20384;-66
2022/10/08 05:20:21;;;;;;;28.73;22.80;;;;;;;;;;5094900;28;20479;-66
2022/10/08 05:22:47;;;;;;;32.05;22.92;;;;;;;;;;5094293;28;20067;-67
2022/10/08 05:25:13;;;;;;;34.65;23.63;;;;;;;;;;5094283;28;20636;-66
2022/10/08 05:27:39;;;;;;;31.70;24.10;;;;;;;;;;5094296;28;20169;-66
2022/10/08 05:30:05;;;;;;;31.52;24.30;;;;;;;;;;5094212;28;20107;-66
2022/10/08 05:32:31;;;;;;;29.25;24.70;;;;;;;;;;5094123;28;20055;-67
2022/10/08 05:34:57;;;;;;;30.58;24.33;;;;;;;;;;5093617;28;20040;-66
2022/10/08 05:37:23;;;;;;;29.83;24.40;;;;;;;;;;5093877;28;20077;-66
2022/10/08 05:39:49;;;;;;;32.08;23.73;;;;;;;;;;5094335;28;20069;-67
2022/10/08 05:42:15;;;;;;;31.25;24.27;;;;;;;;;;5093805;28;20107;-67
2022/10/08 05:44:41;;;;;;;30.98;23.55;;;;;;;;;;5093852;28;20024;-67
2022/10/08 05:47:07;;;;;;;32.30;23.45;;;;;;;;;;5092902;28;20054;-67
2022/10/08 05:49:33;;;;;;;30.70;24.25;;;;;;;;;;5093058;28;20117;-67
2022/10/08 05:51:59;;;;;;;30.02;24.58;;;;;;;;;;5093949;28;20016;-66
2022/10/08 05:54:25;;;;;;;33.20;25.75;;;;;;;;;;5093705;28;20024;-66
2022/10/08 05:56:51;;;;;;;33.05;25.20;;;;;;;;;;5093983;28;20024;-67
2022/10/08 05:59:22;;;;;;;30.17;25.02;;;;;;;;;;5093802;28;20021;-66
2022/10/08 06:01:48;;;;;;;29.88;24.10;;;;;;;;;;5093610;28;20461;-66
2022/10/08 06:04:14;;;;;;;31.52;25.35;;;;;;;;;;5092981;28;20059;-66
2022/10/08 06:06:42;;;;;;;32.25;25.70;;;;;;;;;;5092241;28;20020;-66
2022/10/08 06:09:10;;;;;;;32.22;24.33;;;;;;;;;;5093720;28;20020;-67
2022/10/08 06:11:37;;;;;;;31.88;24.70;;;;;;;;;;5092190;28;20093;-67
2022/10/08 06:14:04;;;;;;;31.90;25.30;;;;;;;;;;5093305;28;20021;-66
2022/10/08 06:16:30;;;;;;;35.13;25.45;;;;;;;;;;5084017;28;20025;-67
2022/10/08 06:18:56;;;;;;;33.08;26.60;;;;;;;;;;5073251;28;20036;-66
2022/10/08 06:21:24;;;;;;;33.05;25.98;;;;;;;;;;5073114;28;20033;-66
2022/10/08 06:23:54;;;;;;;31.83;25.33;;;;;;;;;;5072896;28;20028;-60
2022/10/08 06:26:21;;;;;;;33.50;25.90;;;;;;;;;;5072846;28;20138;-62
2022/10/08 06:28:47;;;;;;;30.05;25.92;;;;;;;;;;5075250;28;20040;-62
2022/10/08 06:31:13;;;;;;;32.72;27.58;;;;;;;;;;5084348;28;20035;-61
2022/10/08 06:33:39;;;;;;;35.28;27.15;;;;;;;;;;5095188;28;20020;-61
2022/10/08 06:36:14;;;;;;;37.10;25.90;;;;;;;;;;5092592;28;20020;-59
2022/10/08 06:38:40;;;;;;;32.20;25.13;;;;;;;;;;5091507;28;20059;-61
2022/10/08 06:41:06;;;;;;;31.98;27.90;;;;;;;;;;5092578;28;20099;-61
2022/10/08 06:43:32;;;;;;;34.65;29.65;;;;;;;;;;5091928;28;20035;-61
2022/10/08 06:45:59;;;;;;;33.47;27.77;;;;;;;;;;5092839;28;20105;-60
2022/10/08 06:48:26;;;;;;;31.60;26.55;;;;;;;;;;5092799;28;20476;-61
2022/10/08 06:50:59;;;;;;;31.65;25.65;;;;;;;;;;5092429;28;20036;-58
2022/10/08 06:53:25;;;;;;;34.28;25.30;;;;;;;;;;5092239;28;20071;-66
2022/10/08 06:55:55;;;;;;;31.38;24.40;;;;;;;;;;5092627;28;20022;-59
2022/10/08 06:58:21;;;;;;;33.97;25.45;;;;;;;;;;5092447;28;20483;-61
2022/10/08 07:00:47;;;;;;;31.73;24.98;;;;;;;;;;5092456;28;20427;-59
2022/10/08 07:03:13;;;;;;;37.45;26.63;;;;;;;;;;5092195;28;20028;-62
2022/10/08 07:05:39;;;;;;;30.63;25.83;;;;;;;;;;5092493;28;20049;-61
2022/10/08 07:08:05;;;;;;;30.13;24.52;;;;;;;;;;5092623;28;20016;-61
2022/10/08 07:10:32;;;;;;;33.80;25.42;;;;;;;;;;5091016;28;20387;-62
2022/10/08 07:12:58;;;;;;;30.60;24.88;;;;;;;;;;5092292;28;20031;-62
2022/10/08 07:15:24;;;;;;;33.17;25.38;;;;;;;;;;5092247;28;20394;-62
2022/10/08 07:17:50;;;;;;;29.48;23.35;;;;;;;;;;5090789;28;20019;-62
2022/10/08 07:20:16;;;;;;;38.00;24.75;;;;;;;;;;5092064;28;20488;-63
2022/10/08 07:22:42;;;;;;;39.08;23.90;;;;;;;;;;5092054;28;20034;-63
2022/10/08 07:25:08;;;;;;;31.45;24.73;;;;;;;;;;5092151;28;20035;-62
2022/10/08 07:27:34;;;;;;;30.58;23.13;;;;;;;;;;5091997;28;20024;-62
2022/10/08 07:30:00;;;;;;;29.25;23.10;;;;;;;;;;5091240;28;20077;-63
2022/10/08 07:32:26;;;;;;;26.27;22.10;;;;;;;;;;5091372;28;20031;-62
2022/10/08 07:34:52;;;;;;;28.75;20.80;;;;;;;;;;5091781;28;20110;-62
2022/10/08 07:37:18;;;;;;;28.60;22.38;;;;;;;;;;5091967;28;20422;-64
2022/10/08 07:39:44;;;;;;;31.20;21.73;;;;;;;;;;5091830;28;20032;-61
2022/10/08 07:42:10;;;;;;;29.15;21.55;;;;;;;;;;5091979;28;20024;-62
2022/10/08 07:44:36;;;;;;;29.40;22.00;;;;;;;;;;5091721;28;20031;-61
2022/10/08 07:47:02;;;;;;;25.38;20.13;;;;;;;;;;5091723;28;20451;-61
2022/10/08 07:49:28;;;;;;;28.50;20.95;;;;;;;;;;5091312;28;20078;-62
2022/10/08 07:51:54;;;;;;;26.55;21.75;;;;;;;;;;5091837;28;20016;-61
2022/10/08 07:54:20;;;;;;;28.95;20.67;;;;;;;;;;5091578;28;20052;-62
2022/10/08 07:56:47;;;;;;;23.08;20.33;;;;;;;;;;5091634;28;20031;-62
2022/10/08 07:59:14;;;;;;;25.60;19.42;;;;;;;;;;5091965;28;20030;-61
2022/10/08 08:01:41;;;;;;;29.65;19.15;;;;;;;;;;5091592;28;20027;-61
2022/10/08 08:04:09;;;;;;;26.27;19.50;;;;;;;;;;5091320;28;20020;-62
2022/10/08 08:06:39;;;;;;;25.70;19.80;;;;;;;;;;5091582;28;20039;-63
2022/10/08 08:09:05;;;;;;;25.40;19.02;;;;;;;;;;5091366;28;20035;-62
2022/10/08 08:11:31;;;;;;;23.23;19.30;;;;;;;;;;5091552;28;20115;-62
2022/10/08 08:13:57;;;;;;;26.25;17.40;;;;;;;;;;5103483;28;20035;-64
2022/10/08 08:16:24;;;;;;;23.02;16.73;;;;;;;;;;5101394;28;20028;-65
2022/10/08 08:18:52;;;;;;;25.95;16.75;;;;;;;;;;5094656;28;20107;-65
2022/10/08 08:21:22;;;;;;;20.33;13.45;;;;;;;;;;5095178;28;20032;-60
2022/10/08 08:23:49;;;;;;;20.67;13.02;;;;;;;;;;5095567;28;20484;-65
2022/10/08 08:26:16;;;;;;;26.05;13.05;;;;;;;;;;5095483;28;20119;-64
2022/10/08 08:28:43;;;;;;;23.13;13.73;;;;;;;;;;5095127;28;20027;-65
2022/10/08 08:31:16;;;;;;;23.52;13.23;;;;;;;;;;5093937;28;20062;-61
2022/10/08 08:33:43;;;;;;;21.63;12.32;;;;;;;;;;5095083;28;20016;-65
2022/10/08 08:36:09;;;;;;;21.58;12.13;;;;;;;;;;5095249;28;20024;-65
2022/10/08 08:38:35;;;;;;;22.33;12.43;;;;;;;;;;5095203;28;20486;-65
2022/10/08 08:41:05;;;;;;;21.33;10.85;;;;;;;;;;5095070;28;20032;-65
2022/10/08 08:43:32;;;;;;;18.13;10.55;;;;;;;;;;5093398;28;20038;-64
2022/10/08 08:45:58;;;;;;;19.70;11.05;;;;;;;;;;5095054;28;20475;-64
2022/10/08 08:48:27;;;;;;;24.15;11.23;;;;;;;;;;5094874;28;20105;-64
2022/10/08 08:50:55;;;;;;;25.38;11.52;;;;;;;;;;5094361;28;20048;-64
2022/10/08 08:53:22;;;;;;;23.70;11.38;;;;;;;;;;5093505;28;20099;-62
2022/10/08 08:55:53;;;;;;;21.33;11.13;;;;;;;;;;5094606;28;20027;-62
2022/10/08 08:58:21;;;;;;;21.67;11.57;;;;;;;;;;5094735;28;20016;-65
2022/10/08 09:00:56;;;;;;;21.15;10.60;;;;;;;;;;5094709;28;20024;-63
2022/10/08 09:03:24;;;;;;;19.27;10.90;;;;;;;;;;5093360;28;20024;-64
2022/10/08 09:05:50;;;;;;;;;;;;;;;;;;5095097;28;20368;-64
2022/10/08 09:08:30;;;;;;;22.45;11.10;;;;;;;;;;5094314;28;19926;-64
2022/10/08 09:10:57;;;;;;;23.52;11.60;;;;;;;;;;5094236;28;20051;-60
2022/10/08 09:13:26;;;;;;;19.80;10.60;;;;;;;;;;5094338;28;20020;-65
2022/10/08 09:15:54;;;;;;;19.88;11.20;;;;;;;;;;5094472;28;20103;-65
2022/10/08 09:18:20;;;;;;;20.23;10.75;;;;;;;;;;5093145;28;20166;-64
2022/10/08 09:20:46;;;;;;;22.02;10.40;;;;;;;;;;5094274;28;20024;-64
2022/10/08 09:23:14;;;;;;;27.80;11.18;;;;;;;;;;5093569;28;20487;-61
2022/10/08 09:25:41;;;;;;;22.05;10.70;;;;;;;;;;5093188;28;20028;-63
2022/10/08 09:28:07;;;;;;;20.65;11.65;;;;;;;;;;5097235;28;20036;-65
2022/10/08 09:30:33;;;;;;;18.02;9.55;;;;;;;;;;5099989;28;20584;-64
2022/10/08 09:33:00;;;;;;;18.35;10.32;;;;;;;;;;5097816;28;20027;-63
2022/10/08 09:35:26;;;;;;;16.10;8.95;;;;;;;;;;5098787;28;20044;-64
2022/10/08 09:37:55;;;;;;;17.45;9.38;;;;;;;;;;5095667;28;20024;-65
2022/10/08 09:40:21;;;;;;;18.35;9.45;;;;;;;;;;5095110;28;20020;-64
2022/10/08 09:43:02;;;;;;;19.58;9.88;;;;;;;;;;5094400;28;20034;-64
2022/10/08 09:45:31;;;;;;;20.67;10.10;;;;;;;;;;5093893;28;20028;-61
2022/10/08 09:48:23;;;;;;;20.60;9.98;;;;;;;;;;5094042;28;20032;-65
2022/10/08 09:50:55;;;;;;;19.58;10.73;;;;;;;;;;5097574;28;20469;-64
2022/10/08 09:53:23;;;;;;;18.88;10.43;;;;;;;;;;5096023;28;20479;-64
2022/10/08 09:55:52;;;;;;;18.15;10.18;;;;;;;;;;5094384;28;20653;-64
2022/10/08 09:58:18;;;;;;;19.00;10.30;;;;;;;;;;5092127;28;20131;-65
2022/10/08 10:00:44;;;;;;;22.42;10.63;;;;;;;;;;5092030;28;20089;-65
2022/10/08 10:03:16;;;;;;;17.15;9.82;;;;;;;;;;5093051;28;20032;-63
2022/10/08 10:05:42;;;;;;;24.15;11.05;;;;;;;;;;5091692;28;20024;-62
2022/10/08 10:08:34;;;;;;;21.40;11.18;;;;;;;;;;5091625;28;20509;-66
2022/10/08 10:11:00;;;;;;;19.63;10.30;;;;;;;;;;5062052;28;20051;-61
2022/10/08 10:13:30;;;;;;;16.27;9.30;;;;;;;;;;5091950;28;20028;-65
2022/10/08 10:15:59;;;;;;;18.60;9.30;;;;;;;;;;5090164;28;20544;-64
2022/10/08 10:18:28;;;;;;;16.42;9.60;;;;;;;;;;5092260;28;20039;-64
2022/10/08 10:21:07;;;;;;;16.33;9.43;;;;;;;;;;5089847;28;20062;-66
2022/10/08 10:23:37;;;;;;;21.60;9.90;;;;;;;;;;5088693;28;20043;-64
2022/10/08 10:26:06;;;;;;;18.73;9.93;;;;;;;;;;5091753;28;20031;-62
2022/10/08 10:28:44;;;;;;;17.77;9.13;;;;;;;;;;5092419;28;20028;-65
2022/10/08 10:31:13;;;;;;;19.88;9.75;;;;;;;;;;5083806;28;20426;-62
2022/10/08 10:33:43;;;;;;;20.55;9.55;;;;;;;;;;5073384;28;20476;-65
2022/10/08 10:36:13;;;;;;;17.15;9.50;;;;;;;;;;5071940;28;20106;-64
2022/10/08 10:38:43;;;;;;;18.27;9.75;;;;;;;;;;5080187;28;20055;-64
2022/10/08 10:41:24;;;;;;;21.40;9.95;;;;;;;;;;5091531;28;20031;-63
2022/10/08 10:43:52;;;;;;;16.35;9.10;;;;;;;;;;5092136;28;20036;-63
2022/10/08 10:46:28;;;;;;;17.75;8.60;;;;;;;;;;5090508;28;20053;-63
2022/10/08 10:48:54;;;;;;;19.08;9.82;;;;;;;;;;5092764;28;20394;-64
2022/10/08 10:51:23;;;;;;;17.50;9.48;;;;;;;;;;5090842;28;20040;-66
2022/10/08 10:53:49;;;;;;;17.08;9.55;;;;;;;;;;5092061;28;20023;-64
2022/10/08 10:56:17;;;;;;;17.85;8.82;;;;;;;;;;5092277;28;20024;-63
2022/10/08 10:58:46;;;;;;;16.65;9.48;;;;;;;;;;5091658;28;20034;-64
2022/10/08 11:01:26;;;;;;;17.52;8.82;;;;;;;;;;5091903;28;20028;-63
2022/10/08 11:04:10;;;;;;;15.88;9.18;;;;;;;;;;5091427;28;20359;-62
2022/10/08 11:06:50;;;;;;;18.38;9.50;;;;;;;;;;5091743;28;20028;-63
2022/10/08 11:09:19;;;;;;;18.05;12.75;;;;;;;;;;5093263;28;20024;-62
2022/10/08 11:11:52;;;;;;;22.67;20.30;;;;;;;;;;5097647;22;20500;-68
2022/10/08 11:14:36;;;;;;;21.23;19.13;;;;;;;;;;5041370;28;20123;-68
2022/10/08 11:17:12;;;;;;;23.00;20.63;;;;;;;;;;5044755;28;20020;-68
2022/10/08 11:19:45;;;;;;;21.55;18.92;;;;;;;;;;5062767;28;20032;-68
2022/10/08 11:22:16;;;;;;;22.55;20.35;;;;;;;;;;5040348;28;20028;-71
2022/10/08 11:24:45;;;;;;;21.95;19.70;;;;;;;;;;5044200;28;20045;-68
2022/10/08 11:27:24;;;;;;;23.20;20.75;;;;;;;;;;5044407;28;20021;-69
2022/10/08 11:30:05;;;;;;;21.45;19.33;;;;;;;;;;5045744;28;20021;-68
2022/10/08 11:32:32;;;;;;;21.92;19.48;;;;;;;;;;5063413;28;20175;-70
2022/10/08 11:34:58;;;;;;;20.10;17.85;;;;;;;;;;5063907;28;20017;-68
2022/10/08 11:37:28;;;;;;;19.63;17.52;;;;;;;;;;5063298;28;20053;-68
2022/10/08 11:40:09;;;;;;;19.17;16.85;;;;;;;;;;5063365;28;20143;-68
2022/10/08 11:42:49;;;;;;;24.20;15.05;;;;;;;;;;5063392;28;20044;-70
2022/10/08 11:45:18;;;;;;;17.48;14.35;;;;;;;;;;5044605;28;20093;-70
2022/10/08 11:47:45;;;;;;;18.42;14.10;;;;;;;;;;5061803;28;20025;-70
2022/10/08 11:50:25;;;;;;;19.90;15.45;;;;;;;;;;5040261;28;20028;-69
2022/10/08 11:52:52;;;;;;;19.98;13.73;;;;;;;;;;5044036;28;20107;-69
2022/10/08 11:55:22;;;;;;;20.60;14.60;;;;;;;;;;5061306;28;20092;-68
2022/10/08 11:57:56;;;;;;;19.20;13.50;;;;;;;;;;5060491;28;20126;-66
2022/10/08 12:00:31;;;;;;;17.63;13.27;;;;;;;;;;5044598;28;20035;-67
2022/10/08 12:02:58;;;;;;;20.25;13.43;;;;;;;;;;5044527;28;20055;-67
2022/10/08 12:05:40;;;;;;;20.40;13.25;;;;;;;;;;5063153;28;20096;-70
2022/10/08 12:08:06;;;;;;;19.05;11.10;;;;;;;;;;5061020;28;20041;-68
2022/10/08 12:10:36;;;;;;;19.45;11.52;;;;;;;;;;5045164;28;20032;-68
2022/10/08 12:13:12;;;;;;;17.45;10.77;;;;;;;;;;5062753;28;20086;-67
2022/10/08 12:15:39;;;;;;;15.75;9.80;;;;;;;;;;5064204;28;20029;-69
2022/10/08 12:18:24;;;;;;;17.42;9.98;;;;;;;;;;5044169;28;20477;-69
2022/10/08 12:21:08;;;;;;;16.48;9.23;;;;;;;;;;5056128;28;20021;-70
2022/10/08 12:23:34;;;;;;;17.38;9.82;;;;;;;;;;5056432;28;20029;-69
2022/10/08 12:26:01;;;;;;;20.08;10.75;;;;;;;;;;5056264;28;20477;-67
2022/10/08 12:28:31;;;;;;;19.42;9.63;;;;;;;;;;5051851;28;20032;-66
2022/10/08 12:30:59;;;;;;;16.92;9.13;;;;;;;;;;5051492;28;20029;-67
2022/10/08 12:33:25;;;;;;;15.52;9.18;;;;;;;;;;5052248;28;20017;-66
2022/10/08 12:35:51;;;;;;;21.13;9.90;;;;;;;;;;5034111;28;20032;-68
2022/10/08 12:38:26;;;;;;;20.67;9.30;;;;;;;;;;5052072;28;20025;-67
2022/10/08 12:41:01;;;;;;;16.40;9.20;;;;;;;;;;5051243;28;20432;-67
2022/10/08 12:43:38;;;;;;;16.40;8.88;;;;;;;;;;5033737;28;20044;-67
2022/10/08 12:46:04;;;;;;;17.05;9.48;;;;;;;;;;5034065;28;20359;-66
2022/10/08 12:48:50;;;;;;;15.77;9.25;;;;;;;;;;5052072;28;20043;-64
2022/10/08 12:51:25;;;;;;;15.55;9.15;;;;;;;;;;5051509;28;20033;-67
2022/10/08 12:53:51;;;;;;;16.95;9.32;;;;;;;;;;5051767;28;20480;-67
2022/10/08 12:56:24;;;;;;;19.48;11.13;;;;;;;;;;5051803;28;20062;-67
2022/10/08 12:58:51;;;;;;;20.30;9.77;;;;;;;;;;5052062;28;20013;-66
2022/10/08 13:01:19;;;;;;;20.88;9.77;;;;;;;;;;5037239;28;20432;-66
2022/10/08 13:03:45;;;;;;;18.90;9.20;;;;;;;;;;5037094;28;20064;-66
2022/10/08 13:06:15;;;;;;;17.00;8.82;;;;;;;;;;5037209;28;20567;-67
2022/10/08 13:08:41;;;;;;;17.75;8.50;;;;;;;;;;5054834;28;20029;-67
2022/10/08 13:11:09;;;;;;;18.63;8.90;;;;;;;;;;5054880;28;20100;-67
2022/10/08 13:13:38;;;;;;;16.80;8.75;;;;;;;;;;5055384;28;20029;-66
2022/10/08 13:16:14;;;;;;;21.73;9.00;;;;;;;;;;5055774;28;20032;-66
2022/10/08 13:18:45;;;;;;;16.85;9.40;;;;;;;;;;5037599;28;20028;-67
2022/10/08 13:21:24;;;;;;;16.75;9.75;;;;;;;;;;5036964;28;20051;-67
2022/10/08 13:23:50;;;;;;;17.08;9.60;;;;;;;;;;5052500;28;20075;-67
2022/10/08 13:26:35;;;;;;;16.13;9.13;;;;;;;;;;5054254;28;20025;-67
2022/10/08 13:29:20;;;;;;;17.48;8.55;;;;;;;;;;5036619;28;20021;-67
2022/10/08 13:32:05;;;;;;;14.90;8.00;;;;;;;;;;5035075;28;20017;-67
2022/10/08 13:34:31;;;;;;;16.52;8.25;;;;;;;;;;5052340;28;20431;-67
2022/10/08 13:36:58;;;;;;;15.48;9.00;;;;;;;;;;5036494;28;20489;-65
2022/10/08 13:39:25;;;;;;;16.13;8.93;;;;;;;;;;5056769;28;20028;-67
2022/10/08 13:41:54;;;;;;;16.90;9.43;;;;;;;;;;5038287;28;20025;-68
2022/10/08 13:44:20;;;;;;;16.85;9.27;;;;;;;;;;5054095;28;20029;-65
2022/10/08 13:46:46;;;;;;;15.77;8.63;;;;;;;;;;5054110;28;20037;-65
2022/10/08 13:49:21;;;;;;;15.52;9.23;;;;;;;;;;5054040;28;20025;-65
2022/10/08 13:51:47;;;;;;;17.35;9.43;;;;;;;;;;5054023;28;20109;-63
2022/10/08 13:54:16;;;;;;;15.38;8.90;;;;;;;;;;5035308;28;20025;-61
2022/10/08 13:56:42;;;;;;;16.10;9.65;;;;;;;;;;5036106;28;20024;-65
2022/10/08 13:59:09;;;;;;;15.55;8.07;;;;;;;;;;5036335;28;20025;-67
2022/10/08 14:01:35;;;;;;;15.95;9.55;;;;;;;;;;5036283;28;20602;-67
2022/10/08 14:04:01;;;;;;;16.63;9.23;;;;;;;;;;5036196;28;20028;-67
2022/10/08 14:06:27;;;;;;;16.60;8.82;;;;;;;;;;5036417;28;20028;-68
2022/10/08 14:08:53;;;;;;;17.27;9.63;;;;;;;;;;5036149;28;20116;-66
2022/10/08 14:11:19;;;;;;;15.10;8.18;;;;;;;;;;5053027;28;20037;-67
2022/10/08 14:13:45;;;;;;;15.20;8.60;;;;;;;;;;5036110;28;20097;-67
2022/10/08 14:16:12;;;;;;;14.73;8.13;;;;;;;;;;5036735;28;20382;-68
2022/10/08 14:18:38;;;;;;;16.95;8.77;;;;;;;;;;5055009;28;20035;-67
2022/10/08 14:21:05;;;;;;;16.85;8.55;;;;;;;;;;5054809;28;20040;-68
2022/10/08 14:23:31;;;;;;;16.17;8.15;;;;;;;;;;5054557;28;20040;-68
2022/10/08 14:25:57;;;;;;;14.48;8.40;;;;;;;;;;4703491;28;10000490;-66
2022/10/08 14:28:23;;;;;;;14.95;8.63;;;;;;;;;;5045538;28;20040;-67
2022/10/08 14:30:49;;;;;;;15.23;8.60;;;;;;;;;;5035689;28;20029;-67
2022/10/08 14:33:16;;;;;;;17.73;8.95;;;;;;;;;;5034368;28;20055;-67